Time;durP1;ratioP1;P1;durP2;ratioP2;P2;SDS_P1;SDS_P2;PMS_P1;PMS_P2;Temp;Humidity;BMP_temperature;BMP_pressure;BME280_temperature;BME280_humidity;BME280_pressure;Samples;Min_cycle;Max_cycle;Signal;HPM_P1;HPM_P2
2023/08/02 00:00:56;;;;;;;2.40;1.30;;;;;;;24.84;61.99;96720.88;5061152;28;20200;-27
2023/08/02 00:03:22;;;;;;;1.17;1.07;;;;;;;24.84;62.31;96715.72;5054588;28;20297;-27
2023/08/02 00:05:56;;;;;;;1.23;1.20;;;;;;;24.84;62.21;96721.72;5056095;28;20236;-27
2023/08/02 00:08:24;;;;;;;1.23;1.20;;;;;;;24.84;62.13;96721.72;5056434;28;20197;-27
2023/08/02 00:10:50;;;;;;;1.60;1.33;;;;;;;24.84;62.25;96723.44;5057011;28;20240;-27
2023/08/02 00:13:20;;;;;;;1.30;1.20;;;;;;;24.80;61.92;96716.53;5058015;28;20296;-36
2023/08/02 00:15:46;;;;;;;1.10;1.10;;;;;;;24.85;62.14;96714.88;5029095;28;20245;-27
2023/08/02 00:18:13;;;;;;;1.10;1.10;;;;;;;24.83;62.37;96714.00;5053500;28;20217;-27
2023/08/02 00:20:40;;;;;;;1.07;1.07;;;;;;;24.83;61.82;96722.56;5059597;28;20227;-27
2023/08/02 00:23:06;;;;;;;1.17;1.10;;;;;;;24.83;62.24;96719.13;5062255;28;20284;-27
2023/08/02 00:25:33;;;;;;;1.27;1.17;;;;;;;24.78;61.98;96711.41;5062416;28;20622;-27
2023/08/02 00:27:59;;;;;;;1.17;1.10;;;;;;;24.82;61.89;96720.88;5051357;28;20733;-27
2023/08/02 00:30:29;;;;;;;1.03;1.00;;;;;;;24.81;61.94;96713.16;5053370;28;20236;-27
2023/08/02 00:32:55;;;;;;;1.20;1.10;;;;;;;24.81;62.09;96720.84;5056658;28;20197;-27
2023/08/02 00:35:22;;;;;;;1.30;1.20;;;;;;;24.81;61.98;96724.25;5052351;28;20257;-27
2023/08/02 00:37:48;;;;;;;1.30;1.20;;;;;;;24.81;62.43;96723.44;5052234;28;20688;-27
2023/08/02 00:40:15;;;;;;;1.13;1.13;;;;;;;24.80;62.26;96721.69;5056078;28;20706;-27
2023/08/02 00:42:42;;;;;;;1.13;1.10;;;;;;;24.80;62.37;96719.13;5056512;28;20233;-27
2023/08/02 00:45:25;;;;;;;1.07;1.00;;;;;;;24.80;62.20;96716.53;5054361;28;20212;-28
2023/08/02 00:48:09;;;;;;;1.40;1.20;;;;;;;24.80;62.28;96712.28;5060661;28;20204;-27
2023/08/02 00:50:53;;;;;;;1.17;1.10;;;;;;;24.80;62.22;96709.72;5041069;28;20578;-27
2023/08/02 00:53:37;;;;;;;1.00;1.00;;;;;;;24.81;62.03;96713.16;5024514;28;20694;-27
2023/08/02 00:56:04;;;;;;;1.40;1.30;;;;;;;24.76;62.07;96702.84;5037980;28;20213;-27
2023/08/02 00:58:31;;;;;;;0.93;0.93;;;;;;;24.80;62.39;96709.72;5037362;28;20322;-27
2023/08/02 01:01:06;;;;;;;1.03;1.03;;;;;;;24.79;62.03;96709.69;5054169;28;20223;-27
2023/08/02 01:03:37;;;;;;;3.03;1.10;;;;;;;24.81;62.25;96719.13;5025405;28;20262;-27
2023/08/02 01:06:10;;;;;;;1.10;1.10;;;;;;;24.80;62.51;96709.72;5059312;28;20616;-27
2023/08/02 01:08:38;;;;;;;0.83;0.83;;;;;;;24.81;62.19;96708.00;5037184;28;20193;-27
2023/08/02 01:11:16;;;;;;;1.13;1.10;;;;;;;24.80;62.52;96707.13;5027962;28;20293;-27
2023/08/02 01:13:46;;;;;;;1.03;1.03;;;;;;;24.80;61.98;96707.13;5038158;28;20227;-27
2023/08/02 01:16:12;;;;;;;1.30;1.20;;;;;;;24.78;62.27;96701.13;5026322;28;20209;-27
2023/08/02 01:18:39;;;;;;;1.13;1.13;;;;;;;24.81;62.18;96706.28;5034116;28;20601;-27
2023/08/02 01:21:05;;;;;;;1.27;1.20;;;;;;;24.81;62.23;96700.31;5023593;28;20292;-27
2023/08/02 01:23:32;;;;;;;1.10;1.10;;;;;;;24.82;62.15;96694.28;5055694;28;20205;-27
2023/08/02 01:25:59;;;;;;;1.10;1.10;;;;;;;24.79;62.04;96690.00;5037854;28;20201;-27
2023/08/02 01:28:27;;;;;;;1.30;1.20;;;;;;;24.80;62.26;96685.72;5027344;28;20258;-27
2023/08/02 01:30:53;;;;;;;1.00;1.00;;;;;;;24.82;62.07;96686.59;5039127;28;20202;-27
2023/08/02 01:33:21;;;;;;;1.30;1.20;;;;;;;24.82;62.37;96687.44;5045093;28;20589;-27
2023/08/02 01:35:48;;;;;;;1.20;1.03;;;;;;;24.82;62.54;96681.44;5028058;28;20274;-27
2023/08/02 01:38:15;;;;;;;1.37;1.20;;;;;;;24.82;62.32;96677.19;5036632;28;20247;-27
2023/08/02 01:40:42;;;;;;;1.27;1.10;;;;;;;24.80;61.95;96668.59;5041678;28;20232;-27
2023/08/02 01:43:08;;;;;;;1.50;1.27;;;;;;;24.79;62.33;96658.31;5059172;28;20205;-27
2023/08/02 01:45:35;;;;;;;1.30;1.20;;;;;;;24.81;62.17;96664.31;5041624;28;20224;-27
2023/08/02 01:48:02;;;;;;;1.30;1.20;;;;;;;24.82;62.49;96663.44;5050893;28;20374;-27
2023/08/02 01:50:28;;;;;;;1.60;1.37;;;;;;;24.81;62.62;96660.00;5058115;28;20200;-27
2023/08/02 01:52:55;;;;;;;1.53;1.37;;;;;;;24.80;62.58;96655.75;5048711;28;20197;-27
2023/08/02 01:55:22;;;;;;;1.27;1.17;;;;;;;24.81;62.54;96656.59;5062807;28;20216;-27
2023/08/02 01:57:48;;;;;;;2.00;1.27;;;;;;;24.81;62.50;96667.72;5034314;28;20236;-27
2023/08/02 02:00:15;;;;;;;2.53;1.40;;;;;;;24.80;62.55;96642.88;5059504;28;20284;-27
2023/08/02 02:02:41;;;;;;;1.30;1.20;;;;;;;24.80;62.50;96645.47;5060074;28;20201;-27
2023/08/02 02:05:08;;;;;;;2.13;1.33;;;;;;;24.81;62.26;96657.44;5047002;28;20861;-27
2023/08/02 02:07:35;;;;;;;1.67;1.40;;;;;;;24.77;62.25;96640.31;5058064;28;20197;-27
2023/08/02 02:10:01;;;;;;;1.70;1.50;;;;;;;24.81;62.54;96647.16;5060664;28;20241;-27
2023/08/02 02:12:28;;;;;;;1.53;1.10;;;;;;;24.82;62.10;96636.06;5053633;28;20460;-27
2023/08/02 02:14:54;;;;;;;1.63;1.40;;;;;;;24.80;62.67;96635.19;5060116;28;20710;-27
2023/08/02 02:17:23;;;;;;;1.33;1.23;;;;;;;24.81;62.57;96628.34;5053764;28;20294;-27
2023/08/02 02:19:49;;;;;;;2.13;1.13;;;;;;;24.82;62.27;96627.47;5054053;28;20220;-27
2023/08/02 02:22:16;;;;;;;1.90;1.30;;;;;;;24.77;62.15;96614.63;5056962;28;20235;-27
2023/08/02 02:24:43;;;;;;;1.30;1.20;;;;;;;24.80;62.56;96626.59;5059990;28;20220;-27
2023/08/02 02:27:09;;;;;;;1.40;1.30;;;;;;;24.80;62.25;96630.03;5054837;28;20752;-28
2023/08/02 02:29:36;;;;;;;1.43;1.33;;;;;;;24.80;62.47;96622.31;5060081;28;20222;-34
2023/08/02 02:32:02;;;;;;;1.50;1.40;;;;;;;24.81;62.71;96624.03;5057158;28;20200;-29
2023/08/02 02:34:29;;;;;;;1.40;1.30;;;;;;;24.77;62.67;96621.44;5059736;28;20632;-27
2023/08/02 02:36:56;;;;;;;1.40;1.30;;;;;;;24.81;62.71;96612.91;5069732;28;20266;-27
2023/08/02 02:39:23;;;;;;;1.20;1.10;;;;;;;24.80;62.65;96604.34;5052860;28;20220;-27
2023/08/02 02:41:50;;;;;;;1.10;1.10;;;;;;;24.82;62.55;96606.91;5054420;28;20205;-27
2023/08/02 02:44:16;;;;;;;1.40;1.30;;;;;;;24.81;62.77;96608.63;5053277;28;20252;-27
2023/08/02 02:46:43;;;;;;;1.50;1.40;;;;;;;24.81;62.66;96600.06;5062793;28;20251;-27
2023/08/02 02:49:10;;;;;;;1.53;1.27;;;;;;;24.79;62.27;96601.78;5053992;28;20201;-28
2023/08/02 02:51:37;;;;;;;1.40;1.30;;;;;;;24.79;62.54;96596.63;5060962;28;20200;-27
2023/08/02 02:54:03;;;;;;;2.20;1.50;;;;;;;24.79;62.42;96602.63;5055204;28;20311;-27
2023/08/02 02:56:30;;;;;;;1.23;1.13;;;;;;;24.78;62.59;96602.63;5061348;28;20284;-28
2023/08/02 02:58:57;;;;;;;1.40;1.20;;;;;;;24.78;62.44;96603.47;5055328;28;20252;-27
2023/08/02 03:01:23;;;;;;;1.57;1.37;;;;;;;24.80;62.36;96611.19;5059400;28;20192;-34
2023/08/02 03:03:50;;;;;;;1.50;1.40;;;;;;;24.78;62.60;96600.91;5054697;28;20308;-27
2023/08/02 03:06:16;;;;;;;1.40;1.30;;;;;;;24.78;62.90;96600.91;5050448;28;20721;-27
2023/08/02 03:08:43;;;;;;;1.20;1.10;;;;;;;24.78;62.59;96603.47;5050164;28;20629;-27
2023/08/02 03:11:10;;;;;;;2.53;1.20;;;;;;;24.72;62.60;96595.75;5055023;28;20577;-28
2023/08/02 03:13:36;;;;;;;1.40;1.30;;;;;;;24.78;62.52;96605.19;5052438;28;20757;-30
2023/08/02 03:16:03;;;;;;;1.30;1.20;;;;;;;24.79;62.70;96606.91;5055370;28;20205;-27
2023/08/02 03:18:30;;;;;;;1.30;1.20;;;;;;;24.77;62.38;96594.06;5049385;28;20260;-27
2023/08/02 03:20:56;;;;;;;1.10;1.10;;;;;;;24.79;62.33;96592.34;5052391;28;20297;-27
2023/08/02 03:23:23;;;;;;;1.30;1.20;;;;;;;24.75;62.67;96574.38;5056786;28;20645;-27
2023/08/02 03:25:49;;;;;;;1.30;1.20;;;;;;;24.80;62.31;96582.91;5060281;28;20204;-27
2023/08/02 03:28:16;;;;;;;1.10;1.10;;;;;;;24.79;62.35;96574.38;5049404;28;20209;-27
2023/08/02 03:30:42;;;;;;;1.23;1.20;;;;;;;24.78;62.65;96571.78;5051721;28;20210;-27
2023/08/02 03:33:09;;;;;;;1.40;1.30;;;;;;;24.79;62.56;96565.78;5035044;28;20283;-27
2023/08/02 03:35:36;;;;;;;1.60;1.30;;;;;;;24.79;62.78;96563.22;5053147;28;20243;-27
2023/08/02 03:38:02;;;;;;;1.40;1.30;;;;;;;24.80;62.50;96562.34;5049653;28;20262;-27
2023/08/02 03:40:29;;;;;;;1.60;1.50;;;;;;;24.79;62.41;96556.38;5053631;28;20249;-27
2023/08/02 03:42:55;;;;;;;1.67;1.30;;;;;;;24.79;62.61;96552.94;5037381;28;20203;-27
2023/08/02 03:45:22;;;;;;;1.20;1.10;;;;;;;24.79;62.27;96550.38;5053177;28;20216;-27
2023/08/02 03:47:49;;;;;;;1.40;1.30;;;;;;;24.79;62.53;96542.66;5056170;28;20193;-27
2023/08/02 03:50:15;;;;;;;1.30;1.20;;;;;;;24.80;62.23;96552.06;5045273;28;20203;-27
2023/08/02 03:52:43;;;;;;;1.50;1.40;;;;;;;24.79;62.48;96546.09;5041911;28;20345;-27
2023/08/02 03:55:09;;;;;;;1.27;1.17;;;;;;;24.78;62.41;96544.38;5045130;28;20295;-27
2023/08/02 03:57:36;;;;;;;1.43;1.30;;;;;;;24.79;62.50;96553.81;5045463;28;20249;-27
2023/08/02 04:00:03;;;;;;;1.33;1.30;;;;;;;24.79;62.04;96558.94;5050462;28;20703;-27
2023/08/02 04:02:29;;;;;;;1.43;1.20;;;;;;;24.75;62.60;96536.66;5026466;28;20223;-27
2023/08/02 04:04:56;;;;;;;1.30;1.20;;;;;;;24.79;62.68;96551.25;5037189;28;20236;-28
2023/08/02 04:07:22;;;;;;;1.30;1.20;;;;;;;24.80;62.73;96536.66;5050272;28;20745;-27
2023/08/02 04:09:49;;;;;;;2.03;1.20;;;;;;;24.79;62.43;96535.81;5050643;28;20201;-27
2023/08/02 04:12:19;;;;;;;1.83;1.40;;;;;;;24.79;62.10;96540.09;5046578;28;20253;-27
2023/08/02 04:14:46;;;;;;;1.67;1.37;;;;;;;24.78;62.43;96539.22;5059156;28;20255;-28
2023/08/02 04:17:12;;;;;;;1.30;1.20;;;;;;;24.78;62.52;96536.66;5050600;28;20282;-27
2023/08/02 04:19:39;;;;;;;2.07;1.40;;;;;;;24.80;62.28;96534.94;5056786;28;20244;-27
2023/08/02 04:22:05;;;;;;;1.40;1.30;;;;;;;24.81;62.35;96533.25;5062306;28;20621;-27
2023/08/02 04:24:32;;;;;;;1.50;1.40;;;;;;;24.80;62.05;96526.38;5064057;28;20754;-27
2023/08/02 04:26:59;;;;;;;1.10;1.10;;;;;;;24.79;62.64;96533.25;5059654;28;20227;-27
2023/08/02 04:29:25;;;;;;;1.80;1.37;;;;;;;24.80;62.24;96544.38;5060311;28;20252;-27
2023/08/02 04:31:52;;;;;;;1.50;1.40;;;;;;;24.80;62.64;96541.78;5032608;28;20243;-27
2023/08/02 04:34:19;;;;;;;1.30;1.20;;;;;;;24.80;61.96;96526.38;5033636;28;20604;-27
2023/08/02 04:36:45;;;;;;;1.83;1.30;;;;;;;24.80;62.26;96524.69;5046015;28;20204;-27
2023/08/02 04:39:12;;;;;;;1.50;1.40;;;;;;;24.80;62.03;96516.09;5044386;28;20676;-28
2023/08/02 04:41:38;;;;;;;1.40;1.30;;;;;;;24.80;62.26;96506.69;5043650;28;20251;-27
2023/08/02 04:44:05;;;;;;;1.10;1.10;;;;;;;24.80;62.02;96493.84;5047647;28;20284;-27
2023/08/02 04:46:32;;;;;;;1.37;1.27;;;;;;;24.76;62.53;96492.13;5054731;28;20678;-27
2023/08/02 04:48:58;;;;;;;1.50;1.40;;;;;;;24.81;62.54;96497.28;5036385;28;20649;-27
2023/08/02 04:51:25;;;;;;;1.47;1.37;;;;;;;24.82;62.29;96491.25;5048298;28;20228;-27
2023/08/02 04:53:51;;;;;;;1.33;1.23;;;;;;;24.83;62.15;96480.13;5051931;28;20992;-27
2023/08/02 04:56:18;;;;;;;1.30;1.20;;;;;;;24.82;62.28;96476.72;5066268;28;20209;-27
2023/08/02 04:58:44;;;;;;;1.40;1.30;;;;;;;24.80;62.09;96467.28;5067225;28;20207;-30
2023/08/02 05:01:11;;;;;;;1.17;1.17;;;;;;;24.83;62.23;96481.00;5060843;28;20250;-27
2023/08/02 05:03:39;;;;;;;1.33;1.23;;;;;;;24.83;62.11;96485.25;5062175;28;20646;-27
2023/08/02 05:06:05;;;;;;;1.40;1.30;;;;;;;24.32;61.94;96396.19;5064511;22;20319;-89
2023/08/02 05:08:34;;;;;;;1.30;1.20;;;;;;;24.83;61.89;96481.00;5017548;28;20284;-89
2023/08/02 05:11:04;;;;;;;1.30;1.20;;;;;;;22.57;61.79;96094.09;4995629;28;20232;-90
2023/08/02 05:13:30;;;;;;;1.20;1.10;;;;;;;24.17;62.37;96360.22;4997838;28;20232;-89
2023/08/02 05:15:57;;;;;;;1.40;1.30;;;;;;;24.36;61.88;96390.16;4970457;28;20201;-89
2023/08/02 05:18:24;;;;;;;1.30;1.20;;;;;;;24.08;62.18;96328.53;4997912;28;20232;-89
2023/08/02 05:20:50;;;;;;;1.93;1.30;;;;;;;24.35;61.94;96380.75;4977360;28;20643;-88
2023/08/02 05:23:17;;;;;;;1.17;1.17;;;;;;;24.49;61.67;96403.88;4993428;28;20313;-88
2023/08/02 05:25:43;;;;;;;1.50;1.40;;;;;;;24.36;62.09;96382.47;4983418;28;20804;-90
2023/08/02 05:28:10;;;;;;;1.20;1.20;;;;;;;23.73;61.72;96264.34;4998014;28;20238;-89
2023/08/02 05:30:37;;;;;;;1.57;1.47;;;;;;;23.84;61.89;96290.88;5006813;28;20205;-90
2023/08/02 05:33:06;;;;;;;1.20;1.20;;;;;;;24.53;61.78;96406.44;4993793;28;20243;-89
2023/08/02 05:35:33;;;;;;;1.43;1.33;;;;;;;24.12;61.98;96327.69;4982207;28;20201;-90
2023/08/02 05:37:59;;;;;;;1.83;1.37;;;;;;;23.84;61.63;96272.91;4990294;28;20681;-90
2023/08/02 05:40:26;;;;;;;2.87;1.50;;;;;;;22.72;60.98;96074.50;4997288;28;20222;-90
2023/08/02 05:42:52;;;;;;;7.23;1.77;;;;;;;24.74;61.45;96419.31;4981381;28;20260;-90
2023/08/02 05:45:19;;;;;;;1.73;1.63;;;;;;;22.82;61.47;96095.84;4984701;28;20206;-90
2023/08/02 05:47:48;;;;;;;1.47;1.37;;;;;;;24.82;61.73;96419.31;4984435;28;20701;-89
2023/08/02 05:50:15;;;;;;;8.23;1.53;;;;;;;24.17;61.41;96334.56;5007287;28;20271;-89
2023/08/02 05:52:41;;;;;;;1.60;1.50;;;;;;;24.81;61.76;96433.88;4982950;28;20226;-88
2023/08/02 05:55:08;;;;;;;1.70;1.60;;;;;;;24.63;61.37;96397.88;5007302;28;20206;-89
2023/08/02 05:57:38;;;;;;;2.10;1.70;;;;;;;24.59;61.50;96393.59;4966772;28;20693;-88
2023/08/02 06:00:07;;;;;;;2.27;1.70;;;;;;;22.78;61.52;96100.13;5011200;28;20316;-90
2023/08/02 06:02:33;;;;;;;1.57;1.40;;;;;;;23.97;61.25;96284.91;4973523;28;20222;-91
2023/08/02 06:05:00;;;;;;;1.57;1.47;;;;;;;24.82;61.49;96430.47;5004313;28;20269;-90
2023/08/02 06:07:27;;;;;;;1.67;1.57;;;;;;;22.81;61.40;96096.72;4986268;28;20670;-91
2023/08/02 06:09:54;;;;;;;1.90;1.80;;;;;;;21.88;61.45;95963.34;5015472;28;20225;-89
2023/08/02 06:12:21;;;;;;;2.03;1.60;;;;;;;21.64;61.26;95923.16;4999432;28;20790;-90
2023/08/02 06:14:48;;;;;;;2.90;1.77;;;;;;;23.81;61.63;96287.44;5000008;28;20637;-90
2023/08/02 06:17:14;;;;;;;1.60;1.50;;;;;;;23.07;61.26;96144.56;5016933;28;20198;-91
2023/08/02 06:19:41;;;;;;;1.73;1.63;;;;;;;21.19;61.31;95826.75;5010783;28;20277;-90
2023/08/02 06:22:08;;;;;;;2.10;1.90;;;;;;;24.60;61.30;96399.59;5002541;28;20222;-91
2023/08/02 06:24:35;;;;;;;2.13;1.47;;;;;;;23.56;61.37;96221.59;4990453;28;20229;-89
2023/08/02 06:27:01;;;;;;;2.17;1.90;;;;;;;23.48;61.21;96198.50;4986321;28;20353;-90
2023/08/02 06:29:28;;;;;;;3.97;2.00;;;;;;;24.05;61.23;96298.63;4984885;28;20650;-89
2023/08/02 06:31:54;;;;;;;2.10;1.80;;;;;;;24.64;61.39;96409.88;4998153;28;20229;-89
2023/08/02 06:34:21;;;;;;;1.80;1.63;;;;;;;24.50;61.63;96382.47;4997509;28;20253;-89
2023/08/02 06:36:48;;;;;;;1.60;1.50;;;;;;;23.58;61.44;96219.88;4994121;28;20295;-88
2023/08/02 06:39:14;;;;;;;2.03;1.80;;;;;;;23.41;61.59;96206.19;4996990;28;20658;-88
2023/08/02 06:41:41;;;;;;;3.60;1.60;;;;;;;24.12;61.26;96325.13;4997488;28;20648;-88
2023/08/02 06:44:08;;;;;;;3.07;1.60;;;;;;;24.10;61.49;96342.25;4997507;28;20204;-88
2023/08/02 06:46:34;;;;;;;2.20;1.63;;;;;;;24.05;61.56;96319.16;4991626;28;20206;-89
2023/08/02 06:49:01;;;;;;;1.70;1.60;;;;;;;24.62;61.41;96403.00;5001007;28;20206;-88
2023/08/02 06:51:28;;;;;;;2.97;1.97;;;;;;;23.97;61.55;96315.72;5000618;28;20670;-88
2023/08/02 06:53:57;;;;;;;2.10;1.90;;;;;;;24.44;61.83;96370.50;4978419;28;20240;-89
2023/08/02 06:56:24;;;;;;;3.20;1.80;;;;;;;22.33;61.56;96015.53;5015509;28;20202;-88
2023/08/02 06:58:51;;;;;;;2.63;1.93;;;;;;;23.17;61.64;96165.94;4975338;28;20205;-90
2023/08/02 07:01:19;;;;;;;2.60;1.70;;;;;;;24.47;61.51;96400.44;4995366;28;20237;-90
2023/08/02 07:03:46;;;;;;;2.10;1.90;;;;;;;24.34;61.99;96367.94;4992219;28;20272;-91
2023/08/02 07:06:17;;;;;;;2.07;1.70;;;;;;;24.08;61.82;96324.28;4970671;28;20257;-90
2023/08/02 07:08:43;;;;;;;2.20;1.80;;;;;;;23.44;61.71;96212.16;4982619;28;20213;-89
2023/08/02 07:11:11;;;;;;;2.20;1.70;;;;;;;23.50;61.27;96216.47;4974050;28;20268;-90
2023/08/02 07:13:55;;;;;;;1.70;1.60;;;;;;;24.48;61.66;96387.59;5003652;28;20221;-90
2023/08/02 07:16:22;;;;;;;2.00;1.80;;;;;;;24.67;62.07;96420.19;4979034;28;20230;-90
2023/08/02 07:18:49;;;;;;;2.23;1.70;;;;;;;24.25;61.92;96355.09;5000141;28;20198;-90
2023/08/02 07:21:15;;;;;;;2.07;1.80;;;;;;;24.18;62.08;96343.09;4987788;28;20602;-89
2023/08/02 07:23:42;;;;;;;1.73;1.63;;;;;;;24.82;62.05;96458.72;5000955;28;20226;-89
2023/08/02 07:26:09;;;;;;;1.77;1.67;;;;;;;23.84;61.64;96287.44;4983780;28;20277;-89
2023/08/02 07:28:36;;;;;;;2.10;1.90;;;;;;;24.84;61.79;96466.44;4987365;28;20255;-90
2023/08/02 07:31:10;;;;;;;2.33;1.70;;;;;;;24.43;61.59;96393.59;4972496;28;20657;-90
2023/08/02 07:33:36;;;;;;;1.63;1.53;;;;;;;24.47;62.00;96391.03;5000108;28;20228;-90
2023/08/02 07:36:04;;;;;;;1.80;1.70;;;;;;;23.79;61.81;96272.03;5016433;28;20195;-89
2023/08/02 07:38:31;;;;;;;2.00;1.80;;;;;;;23.39;61.89;96209.59;4999854;28;20583;-89
2023/08/02 07:40:58;;;;;;;2.03;1.87;;;;;;;23.57;61.91;96231.00;5000036;28;20665;-90
2023/08/02 07:43:24;;;;;;;2.30;2.00;;;;;;;23.76;62.12;96260.91;5016010;28;20389;-89
2023/08/02 07:45:51;;;;;;;1.70;1.60;;;;;;;23.11;61.91;96158.25;4993772;28;20198;-90
2023/08/02 07:48:17;;;;;;;1.70;1.60;;;;;;;24.84;61.73;96453.59;5016043;28;20194;-89
2023/08/02 07:50:44;;;;;;;2.07;1.87;;;;;;;24.83;61.88;96450.16;5015919;28;20331;-88
2023/08/02 07:53:10;;;;;;;1.80;1.70;;;;;;;23.46;61.69;96196.78;5019900;28;20226;-90
2023/08/02 07:55:37;;;;;;;1.70;1.60;;;;;;;24.09;61.73;96305.44;4983698;28;20313;-89
2023/08/02 07:58:04;;;;;;;2.03;1.83;;;;;;;24.38;62.13;96355.09;4996797;28;20289;-89
2023/08/02 08:00:30;;;;;;;1.87;1.67;;;;;;;23.11;62.01;96148.00;4984959;28;20234;-89
2023/08/02 08:02:57;;;;;;;2.00;1.80;;;;;;;23.58;62.14;96207.91;4996293;28;20223;-89
2023/08/02 08:05:25;;;;;;;1.70;1.60;;;;;;;24.21;61.90;96313.16;4995632;28;20207;-89
2023/08/02 08:07:52;;;;;;;1.77;1.67;;;;;;;23.23;61.80;96156.56;4999864;28;20210;-89
2023/08/02 08:10:18;;;;;;;2.00;1.80;;;;;;;24.23;62.16;96311.44;4983313;28;20194;-89
2023/08/02 08:12:45;;;;;;;1.60;1.50;;;;;;;24.77;62.22;96401.31;4991236;28;20721;-88
2023/08/02 08:15:12;;;;;;;1.70;1.60;;;;;;;24.54;62.00;96368.78;4999316;28;20210;-89
2023/08/02 08:17:38;;;;;;;1.80;1.70;;;;;;;24.68;61.75;96391.06;4999379;28;20206;-89
2023/08/02 08:20:05;;;;;;;1.93;1.80;;;;;;;23.88;62.34;96261.78;4983111;28;20325;-90
2023/08/02 08:22:32;;;;;;;3.83;1.70;;;;;;;24.69;62.20;96397.91;4997674;28;20264;-90
2023/08/02 08:24:59;;;;;;;2.07;1.90;;;;;;;22.15;62.14;95964.31;4982526;28;20202;-89
2023/08/02 08:27:25;;;;;;;1.87;1.60;;;;;;;23.19;61.83;96133.50;5005008;28;20264;-89
2023/08/02 08:29:52;;;;;;;2.40;1.90;;;;;;;22.66;61.97;96045.47;5015413;28;20645;-90
2023/08/02 08:32:20;;;;;;;2.43;1.77;;;;;;;22.32;61.98;95983.06;4998058;28;20233;-89
2023/08/02 08:34:46;;;;;;;1.80;1.70;;;;;;;24.45;61.86;96348.25;4991585;28;20596;-88
2023/08/02 08:37:13;;;;;;;2.77;1.80;;;;;;;23.52;61.72;96196.78;4998890;28;20316;-90
2023/08/02 08:39:40;;;;;;;2.03;1.83;;;;;;;24.10;61.71;96304.59;4990097;28;20277;-90
2023/08/02 08:42:07;;;;;;;2.10;1.90;;;;;;;22.79;61.76;96060.84;4998730;28;20218;-89
2023/08/02 08:44:37;;;;;;;1.83;1.73;;;;;;;24.57;62.24;96349.06;4967128;28;20641;-89
2023/08/02 08:47:07;;;;;;;1.80;1.70;;;;;;;24.66;62.00;96368.81;4982458;28;20198;-89
2023/08/02 08:49:34;;;;;;;1.80;1.70;;;;;;;24.67;62.08;96376.50;4998588;28;20582;-89
2023/08/02 08:52:05;;;;;;;2.10;1.90;;;;;;;24.36;62.13;96309.69;4998632;28;20222;-89
2023/08/02 08:54:34;;;;;;;1.67;1.57;;;;;;;24.55;61.82;96335.41;4998695;28;20197;-89
2023/08/02 08:57:01;;;;;;;1.90;1.80;;;;;;;24.67;61.76;96355.09;4998583;28;20281;-89
2023/08/02 08:59:27;;;;;;;2.00;1.80;;;;;;;24.59;61.94;96337.09;5014593;28;20187;-89
2023/08/02 09:01:54;;;;;;;1.90;1.70;;;;;;;22.44;61.70;95964.34;4994840;28;20283;-88
2023/08/02 09:04:21;;;;;;;2.03;1.73;;;;;;;24.56;61.84;96319.09;5014439;28;20646;-89
2023/08/02 09:06:47;;;;;;;1.77;1.67;;;;;;;23.42;62.09;96142.94;4998061;28;20189;-88
2023/08/02 09:09:14;;;;;;;1.70;1.60;;;;;;;24.15;62.14;96260.94;4997779;28;20220;-89
2023/08/02 09:11:42;;;;;;;1.77;1.67;;;;;;;23.59;61.66;96153.19;4997441;28;20252;-89
2023/08/02 09:14:14;;;;;;;1.90;1.80;;;;;;;24.49;61.96;96298.56;5014318;28;20205;-89
2023/08/02 09:17:00;;;;;;;1.90;1.70;;;;;;;24.26;61.76;96257.53;4998388;28;20661;-90
2023/08/02 09:19:31;;;;;;;1.90;1.80;;;;;;;24.09;61.94;96232.72;4998261;28;20191;-89
2023/08/02 09:22:14;;;;;;;1.70;1.60;;;;;;;22.88;62.24;96013.88;4998989;28;20234;-90
2023/08/02 09:24:44;;;;;;;1.60;1.50;;;;;;;24.11;61.96;96219.03;4998154;28;20198;-90
2023/08/02 09:27:15;;;;;;;1.67;1.57;;;;;;;24.27;61.65;96241.25;4998671;28;20619;-89
2023/08/02 09:29:49;;;;;;;1.80;1.70;;;;;;;24.82;62.02;96337.06;4966975;28;20593;-90
2023/08/02 09:32:22;;;;;;;1.80;1.70;;;;;;;24.06;62.17;96213.03;5014291;28;20226;-89
2023/08/02 09:34:51;;;;;;;2.00;1.63;;;;;;;23.74;62.02;96145.47;5013652;28;20233;-88
2023/08/02 09:37:36;;;;;;;1.80;1.70;;;;;;;24.47;62.12;96274.59;4981665;28;20658;-89
2023/08/02 09:40:04;;;;;;;1.73;1.63;;;;;;;23.70;62.03;96124.97;4997394;28;20260;-90
2023/08/02 09:42:31;;;;;;;2.07;1.87;;;;;;;24.55;62.00;96275.44;4971210;28;20228;-89
2023/08/02 09:45:03;;;;;;;1.83;1.73;;;;;;;24.01;61.74;96201.09;4998003;28;20731;-90
2023/08/02 09:47:30;;;;;;;1.50;1.40;;;;;;;22.75;61.60;95963.53;4998301;28;20208;-89
2023/08/02 09:50:06;;;;;;;1.67;1.57;;;;;;;22.76;61.68;95970.34;4997793;28;20198;-89
2023/08/02 09:52:33;;;;;;;1.90;1.70;;;;;;;24.53;61.90;96278.03;4998131;28;20237;-90
2023/08/02 09:55:00;;;;;;;1.80;1.70;;;;;;;23.97;61.70;96171.13;5011022;28;20612;-89
2023/08/02 09:57:28;;;;;;;1.70;1.60;;;;;;;24.57;62.19;96269.44;5010665;28;20203;-91
2023/08/02 09:59:55;;;;;;;1.70;1.60;;;;;;;23.22;61.94;96041.22;5015889;28;20248;-89
2023/08/02 10:02:23;;;;;;;1.87;1.60;;;;;;;20.54;61.64;95582.28;4990051;28;20214;-88
2023/08/02 10:04:53;;;;;;;2.47;1.87;;;;;;;22.98;61.68;96008.75;5013281;28;20218;-88
2023/08/02 10:07:20;;;;;;;2.00;1.80;;;;;;;22.21;62.16;95858.53;4978154;28;20287;-88
2023/08/02 10:09:46;;;;;;;1.60;1.50;;;;;;;24.47;61.80;96242.06;4961294;28;20218;-88
2023/08/02 10:12:16;;;;;;;1.80;1.70;;;;;;;24.82;61.60;96290.81;5008670;28;20219;-88
2023/08/02 10:14:43;;;;;;;1.50;1.40;;;;;;;23.87;61.98;96125.81;4996122;28;20650;-88
2023/08/02 10:17:10;;;;;;;1.63;1.53;;;;;;;24.41;61.85;96210.41;4997081;28;20210;-88
2023/08/02 10:19:36;;;;;;;1.50;1.40;;;;;;;24.20;62.25;96174.53;4996902;28;20206;-88
2023/08/02 10:22:04;;;;;;;1.93;1.80;;;;;;;24.20;61.95;96182.22;4997691;28;20761;-89
2023/08/02 10:24:31;;;;;;;2.07;1.90;;;;;;;24.57;61.75;96230.91;5001318;28;20218;-88
2023/08/02 10:26:58;;;;;;;1.80;1.70;;;;;;;23.98;62.12;96118.97;5001106;28;20234;-88
2023/08/02 10:29:28;;;;;;;1.50;1.40;;;;;;;24.83;62.09;96261.69;5003696;22;20236;31
2023/08/02 10:31:55;;;;;;;1.73;1.63;;;;;;;24.81;62.14;96259.13;5042383;28;20248;-29
2023/08/02 10:34:33;;;;;;;1.83;1.70;;;;;;;24.83;61.75;96256.53;5052781;28;20282;-28
2023/08/02 10:37:00;;;;;;;1.77;1.60;;;;;;;24.83;61.96;96254.84;5024388;28;20213;-28
2023/08/02 10:39:45;;;;;;;1.80;1.70;;;;;;;24.83;62.06;96248.84;5031649;28;20214;-34
2023/08/02 10:42:18;;;;;;;1.70;1.60;;;;;;;24.84;62.08;96237.72;5017061;28;20229;-37
2023/08/02 10:44:54;;;;;;;1.80;1.70;;;;;;;24.84;62.24;96242.84;5036879;28;20223;-34
2023/08/02 10:47:27;;;;;;;1.80;1.70;;;;;;;24.82;62.22;96242.88;5030448;28;20208;-28
2023/08/02 10:49:54;;;;;;;2.20;1.70;;;;;;;24.82;62.17;96240.28;5030710;28;20312;-28
2023/08/02 10:52:34;;;;;;;2.00;1.90;;;;;;;24.82;61.76;96230.00;5031059;28;20227;-29
2023/08/02 10:55:12;;;;;;;1.80;1.70;;;;;;;24.82;62.06;96224.88;5022499;28;20284;-29
2023/08/02 10:57:54;;;;;;;1.80;1.70;;;;;;;24.82;62.32;96213.72;5032430;28;20198;-29
2023/08/02 11:00:25;;;;;;;1.60;1.50;;;;;;;24.82;61.75;96206.88;5027498;28;20211;-29
2023/08/02 11:02:52;;;;;;;1.77;1.67;;;;;;;24.82;61.69;96203.44;5017652;28;20233;-30
2023/08/02 11:05:41;;;;;;;1.80;1.70;;;;;;;24.82;62.16;96208.59;5022593;28;20265;-29
2023/08/02 11:08:09;;;;;;;1.70;1.60;;;;;;;24.82;61.87;96190.59;5022909;28;20253;-33
2023/08/02 11:10:48;;;;;;;1.63;1.53;;;;;;;24.82;62.19;96177.75;5543639;22;20190;-24
2023/08/02 11:13:15;;;;;;;2.10;1.67;;;;;;;24.80;62.32;96185.47;5043892;28;20210;-27
2023/08/02 11:15:41;;;;;;;1.80;1.70;;;;;;;24.82;62.10;96177.75;5029185;28;20217;-27
2023/08/02 11:18:08;;;;;;;1.90;1.80;;;;;;;24.82;61.93;96181.19;5051198;28;20640;-27
2023/08/02 11:20:37;;;;;;;1.73;1.63;;;;;;;24.84;61.73;96186.31;5039158;28;20264;-27
2023/08/02 11:23:23;;;;;;;1.80;1.70;;;;;;;24.82;62.21;96177.75;5042113;28;20582;-27
2023/08/02 11:25:51;;;;;;;1.80;1.70;;;;;;;24.83;61.89;96179.44;5037852;28;20288;-27
2023/08/02 11:28:44;;;;;;;1.50;1.40;;;;;;;24.81;61.68;96164.03;5041798;28;20217;-25
2023/08/02 11:31:11;;;;;;;1.60;1.50;;;;;;;24.82;62.29;96170.03;5043273;28;20240;-27
2023/08/02 11:33:38;;;;;;;2.03;1.90;;;;;;;24.82;61.80;96173.47;5027309;28;20335;-25
2023/08/02 11:36:05;;;;;;;1.60;1.50;;;;;;;24.82;62.00;96162.34;5042706;28;20206;-27
2023/08/02 11:38:31;;;;;;;1.57;1.47;;;;;;;24.82;61.88;96150.34;5044431;28;20635;-27